createdAt,value
2023-04-18T00:00:21.337Z,11.47
2023-04-18T00:03:24.124Z,11.10
2023-04-18T00:06:26.875Z,12.10
2023-04-18T00:09:28.902Z,12.30
2023-04-18T00:12:32.103Z,12.60
2023-04-18T00:15:35.700Z,11.23
2023-04-18T00:18:37.684Z,12.40
2023-04-18T00:21:45.132Z,11.60
2023-04-18T00:24:47.557Z,11.90
2023-04-18T00:27:49.581Z,11.87
2023-04-18T00:30:52.780Z,11.03
2023-04-18T00:33:54.970Z,11.13
2023-04-18T00:36:58.982Z,11.17
2023-04-18T00:40:00.955Z,10.83
2023-04-18T00:43:03.213Z,11.07
2023-04-18T00:46:05.403Z,11.23
2023-04-18T00:49:08.223Z,10.80
2023-04-18T00:52:12.153Z,10.83
2023-04-18T00:55:16.404Z,9.83
2023-04-18T00:58:18.399Z,10.30
2023-04-18T01:01:20.449Z,11.87
2023-04-18T01:04:22.718Z,10.33
2023-04-18T01:07:26.671Z,11.00
2023-04-18T01:10:32.041Z,11.33
2023-04-18T01:13:34.067Z,10.00
2023-04-18T01:16:39.044Z,9.90
2023-04-18T01:19:41.129Z,10.67
2023-04-18T01:22:43.392Z,10.43
2023-04-18T01:25:47.206Z,9.97
2023-04-18T01:28:49.199Z,10.40
2023-04-18T01:31:51.230Z,9.67
2023-04-18T01:34:53.211Z,8.77
2023-04-18T01:37:55.632Z,9.37
2023-04-18T01:40:57.565Z,9.80
2023-04-18T01:44:00.208Z,10.10
2023-04-18T01:47:02.589Z,11.17
2023-04-18T01:50:08.100Z,10.50
2023-04-18T01:53:10.062Z,11.00
2023-04-18T01:56:12.058Z,11.33
2023-04-18T01:59:14.085Z,10.97
2023-04-18T02:02:16.534Z,11.97
2023-04-18T02:05:19.060Z,10.80
2023-04-18T02:08:21.386Z,11.83
2023-04-18T02:11:23.360Z,10.80
2023-04-18T02:14:30.248Z,11.73
2023-04-18T02:17:36.473Z,11.00
2023-04-18T02:20:38.734Z,10.97
2023-04-18T02:23:40.754Z,10.63
2023-04-18T02:26:43.378Z,11.20
2023-04-18T02:29:46.026Z,11.43
2023-04-18T02:32:52.265Z,10.77
2023-04-18T02:35:54.330Z,10.17
2023-04-18T02:38:56.704Z,10.00
2023-04-18T02:41:59.030Z,10.50
2023-04-18T02:45:01.026Z,10.73
2023-04-18T02:48:03.099Z,9.83
2023-04-18T02:51:07.779Z,9.70
2023-04-18T02:54:12.059Z,8.43
2023-04-18T02:57:30.000Z,8.30
2023-04-18T03:00:37.517Z,8.83
2023-04-18T03:03:59.927Z,8.57
2023-04-18T03:07:09.578Z,7.87
2023-04-18T03:10:13.894Z,7.47
2023-04-18T03:13:17.635Z,6.97
2023-04-18T03:16:20.033Z,7.47
2023-04-18T03:19:23.836Z,7.33
2023-04-18T03:22:27.935Z,7.17
2023-04-18T03:25:34.584Z,7.07
2023-04-18T03:28:37.618Z,6.17
2023-04-18T03:31:41.769Z,6.37
2023-04-18T03:34:44.320Z,6.37
2023-04-18T03:37:46.481Z,5.63
2023-04-18T03:40:55.440Z,5.27
2023-04-18T03:44:05.387Z,5.43
2023-04-18T03:47:11.382Z,6.00
2023-04-18T03:50:16.733Z,5.67
2023-04-18T03:53:20.531Z,5.20
2023-04-18T03:56:23.575Z,5.43
2023-04-18T03:59:27.590Z,4.70
2023-04-18T04:02:30.748Z,5.43
2023-04-18T04:05:33.186Z,5.37
2023-04-18T04:08:35.213Z,5.47
2023-04-18T04:11:37.907Z,4.93
2023-04-18T04:14:42.505Z,5.23
2023-04-18T04:17:44.754Z,5.23
2023-04-18T04:20:48.103Z,5.10
2023-04-18T04:24:10.634Z,6.30
2023-04-18T04:27:19.133Z,5.80
2023-04-18T04:30:21.914Z,5.60
2023-04-18T04:33:26.044Z,5.50
2023-04-18T04:36:30.890Z,5.97
2023-04-18T04:39:34.326Z,6.43
2023-04-18T04:42:56.947Z,5.50
2023-04-18T04:46:07.823Z,5.63
2023-04-18T04:49:09.960Z,5.57
2023-04-18T04:52:12.030Z,5.33
2023-04-18T04:55:14.098Z,5.37
2023-04-18T04:58:18.002Z,5.03
2023-04-18T05:01:59.869Z,4.80
2023-04-18T05:05:01.972Z,4.77
2023-04-18T05:08:04.943Z,5.30
2023-04-18T05:11:07.079Z,5.17
2023-04-18T05:14:09.224Z,5.10
2023-04-18T05:17:11.281Z,5.17
2023-04-18T05:20:13.353Z,5.00
2023-04-18T05:23:15.372Z,5.10
2023-04-18T05:26:18.874Z,5.30
2023-04-18T05:29:20.913Z,4.63
2023-04-18T05:32:24.221Z,4.60
2023-04-18T05:35:26.396Z,4.60
2023-04-18T05:38:28.389Z,4.60
2023-04-18T05:41:30.554Z,4.67
2023-04-18T05:44:32.598Z,4.50
2023-04-18T05:47:34.667Z,4.77
2023-04-18T05:50:36.814Z,4.57
2023-04-18T05:53:38.869Z,4.67
2023-04-18T05:56:41.053Z,4.10
2023-04-18T05:59:43.260Z,4.27
2023-04-18T06:02:45.386Z,4.27
2023-04-18T06:05:47.507Z,3.83
2023-04-18T06:08:49.537Z,3.93
2023-04-18T06:11:51.557Z,3.83
2023-04-18T06:14:53.598Z,3.43
2023-04-18T06:17:55.660Z,3.80
2023-04-18T06:20:57.729Z,3.80
2023-04-18T06:24:01.508Z,4.27
2023-04-18T06:27:03.902Z,3.93
2023-04-18T06:30:07.868Z,3.90
2023-04-18T06:33:11.242Z,3.30
2023-04-18T06:36:13.298Z,3.33
2023-04-18T06:39:15.393Z,3.10
2023-04-18T06:42:17.699Z,3.10
2023-04-18T06:45:22.854Z,3.10
2023-04-18T06:48:24.884Z,3.13
2023-04-18T06:51:27.732Z,3.00
2023-04-18T06:54:29.780Z,3.07
2023-04-18T06:57:31.824Z,3.20
2023-04-18T07:00:33.899Z,2.80
2023-04-18T07:03:36.079Z,2.57
2023-04-18T07:06:38.310Z,2.63
2023-04-18T07:09:40.386Z,2.57
2023-04-18T07:12:42.344Z,2.30
2023-04-18T07:15:44.470Z,2.57
2023-04-18T07:18:46.435Z,2.13
2023-04-18T07:21:48.483Z,2.23
2023-04-18T07:24:50.579Z,2.77
2023-04-18T07:27:52.559Z,2.43
2023-04-18T07:30:57.045Z,2.43
2023-04-18T07:33:59.193Z,2.37
2023-04-18T07:37:01.497Z,2.10
2023-04-18T07:40:04.514Z,2.13
2023-04-18T07:43:06.502Z,2.23
2023-04-18T07:46:08.725Z,2.50
2023-04-18T07:49:10.926Z,2.20
2023-04-18T07:52:13.042Z,2.33
2023-04-18T07:55:15.140Z,2.30
2023-04-18T07:58:17.600Z,2.70
2023-04-18T08:01:21.237Z,2.10
2023-04-18T08:04:23.488Z,3.00
2023-04-18T08:07:25.983Z,2.77
2023-04-18T08:10:28.347Z,2.47
2023-04-18T08:13:30.585Z,2.97
2023-04-18T08:16:32.645Z,3.13
2023-04-18T08:19:34.770Z,3.30
2023-04-18T08:22:44.185Z,3.27
2023-04-18T08:25:58.915Z,2.97
2023-04-18T08:29:00.960Z,3.77
2023-04-18T08:32:03.142Z,3.60
2023-04-18T08:35:05.497Z,3.77
2023-04-18T08:38:07.803Z,3.73
2023-04-18T08:41:09.986Z,3.70
2023-04-18T08:44:12.540Z,3.10
2023-04-18T08:47:14.888Z,3.97
2023-04-18T08:50:17.513Z,3.37
2023-04-18T08:53:19.573Z,4.30
2023-04-18T08:56:26.188Z,3.93
2023-04-18T08:59:28.296Z,4.40
2023-04-18T09:02:39.191Z,3.70
2023-04-18T09:05:41.560Z,3.60
2023-04-18T09:08:55.061Z,4.07
2023-04-18T09:12:18.540Z,3.97
2023-04-18T09:15:23.871Z,3.83
2023-04-18T09:18:26.120Z,4.00
2023-04-18T09:21:29.899Z,4.60
2023-04-18T09:24:32.672Z,3.67
2023-04-18T09:27:35.413Z,4.13
2023-04-18T09:30:40.196Z,4.10
2023-04-18T09:33:57.110Z,4.17
2023-04-18T09:37:07.966Z,3.77
2023-04-18T09:40:20.543Z,4.67
2023-04-18T09:43:22.577Z,5.77
2023-04-18T09:46:25.550Z,4.67
2023-04-18T09:49:27.871Z,4.93
2023-04-18T09:52:40.375Z,4.30
2023-04-18T09:55:43.156Z,4.67
2023-04-18T09:58:47.637Z,4.73
2023-04-18T10:01:50.970Z,4.80
2023-04-18T10:04:56.273Z,5.00
2023-04-18T10:07:58.850Z,5.27
2023-04-18T10:11:01.339Z,5.10
2023-04-18T10:14:08.006Z,4.87
2023-04-18T10:17:11.316Z,4.77
2023-04-18T10:20:20.286Z,4.63
2023-04-18T10:23:34.978Z,4.87
2023-04-18T10:26:50.573Z,4.87
2023-04-18T10:29:54.985Z,4.80
2023-04-18T10:32:57.044Z,4.70
2023-04-18T10:36:20.782Z,5.17
2023-04-18T10:39:24.452Z,5.10
2023-04-18T10:42:58.743Z,4.63
2023-04-18T10:46:23.988Z,5.33
2023-04-18T10:49:35.403Z,4.80
2023-04-18T10:52:37.565Z,5.27
2023-04-18T10:55:44.885Z,5.00
2023-04-18T10:58:51.524Z,4.90
2023-04-18T11:02:04.780Z,6.23
2023-04-18T11:05:08.640Z,5.20
2023-04-18T11:08:29.052Z,5.37
2023-04-18T11:11:31.014Z,5.70
2023-04-18T11:14:48.453Z,5.63
2023-04-18T11:18:04.711Z,6.13
2023-04-18T11:21:06.847Z,5.63
2023-04-18T11:24:08.975Z,5.60
2023-04-18T11:27:12.473Z,6.27
2023-04-18T11:30:15.816Z,6.27
2023-04-18T11:33:18.096Z,6.60
2023-04-18T11:36:20.235Z,6.27
2023-04-18T11:39:22.892Z,6.50
2023-04-18T11:42:31.179Z,6.20
2023-04-18T11:45:33.829Z,6.00
2023-04-18T11:48:40.929Z,5.93
2023-04-18T11:51:46.419Z,6.10
2023-04-18T11:54:48.630Z,6.20
2023-04-18T11:58:00.697Z,5.47
2023-04-18T12:01:18.773Z,5.43
2023-04-18T12:04:21.345Z,5.50
2023-04-18T12:07:33.914Z,5.83
2023-04-18T12:10:38.726Z,5.83
2023-04-18T12:13:40.816Z,6.03
2023-04-18T12:16:42.847Z,5.60
2023-04-18T12:19:49.673Z,6.70
2023-04-18T12:22:54.399Z,6.00
2023-04-18T12:26:01.506Z,6.20
2023-04-18T12:29:03.484Z,6.10
2023-04-18T12:32:06.341Z,6.40
2023-04-18T12:35:08.981Z,5.47
2023-04-18T12:38:11.236Z,6.07
2023-04-18T12:41:13.222Z,6.37
2023-04-18T12:44:16.488Z,6.40
2023-04-18T12:47:18.736Z,6.10
2023-04-18T12:50:26.050Z,5.77
2023-04-18T12:53:28.311Z,5.67
2023-04-18T12:56:30.325Z,5.50
2023-04-18T12:59:32.390Z,5.07
2023-04-18T13:02:37.557Z,5.30
2023-04-18T13:05:39.759Z,5.23
2023-04-18T13:08:42.907Z,5.40
2023-04-18T13:11:45.252Z,4.87
2023-04-18T13:14:47.219Z,4.80
2023-04-18T13:17:49.808Z,4.73
2023-04-18T13:20:52.739Z,4.80
2023-04-18T13:23:54.894Z,5.20
2023-04-18T13:26:57.066Z,5.30
2023-04-18T13:29:59.073Z,5.33
2023-04-18T13:33:01.089Z,6.20
2023-04-18T13:36:03.424Z,5.43
2023-04-18T13:39:05.977Z,5.80
2023-04-18T13:42:08.215Z,5.33
2023-04-18T13:45:10.794Z,6.00
2023-04-18T13:48:14.447Z,5.50
2023-04-18T13:51:18.228Z,5.03
2023-04-18T13:54:20.337Z,5.50
2023-04-18T13:57:23.414Z,5.17
2023-04-18T14:00:25.527Z,5.10
2023-04-18T14:03:28.809Z,4.87
2023-04-18T14:06:32.745Z,5.43
2023-04-18T14:09:34.912Z,5.23
2023-04-18T14:12:37.020Z,5.20
2023-04-18T14:15:39.256Z,4.50
2023-04-18T14:18:41.359Z,4.67
2023-04-18T14:21:43.327Z,5.27
2023-04-18T14:24:45.648Z,4.63
2023-04-18T14:27:48.878Z,4.30
2023-04-18T14:30:52.213Z,4.13
2023-04-18T14:33:54.374Z,4.73
2023-04-18T14:36:56.418Z,4.23
2023-04-18T14:39:58.397Z,3.90
2023-04-18T14:43:00.754Z,3.97
2023-04-18T14:46:02.772Z,4.03
2023-04-18T14:49:04.756Z,4.53
2023-04-18T14:52:06.807Z,4.03
2023-04-18T14:55:09.819Z,4.57
2023-04-18T14:58:11.819Z,4.50
2023-04-18T15:01:13.900Z,4.77
2023-04-18T15:04:16.276Z,4.57
2023-04-18T15:07:18.643Z,4.63
2023-04-18T15:10:22.693Z,4.30
2023-04-18T15:13:25.451Z,4.73
2023-04-18T15:16:27.726Z,5.33
2023-04-18T15:19:31.286Z,4.23
2023-04-18T15:22:34.058Z,4.87
2023-04-18T15:25:36.077Z,5.77
2023-04-18T15:28:38.119Z,6.30
2023-04-18T15:31:40.106Z,6.70
2023-04-18T15:34:42.127Z,6.10
2023-04-18T15:37:44.180Z,5.83
2023-04-18T15:40:46.208Z,5.43
2023-04-18T15:43:48.359Z,5.67
2023-04-18T15:46:50.919Z,5.33
2023-04-18T15:49:53.484Z,5.30
2023-04-18T15:52:56.577Z,5.50
2023-04-18T15:56:01.892Z,5.93
2023-04-18T15:59:06.033Z,6.17
2023-04-18T16:02:09.710Z,5.73
2023-04-18T16:05:12.637Z,6.50
2023-04-18T16:08:14.896Z,6.73
2023-04-18T16:11:17.353Z,6.27
2023-04-18T16:14:19.540Z,6.37
2023-04-18T16:17:21.584Z,6.83
2023-04-18T16:20:23.831Z,7.03
2023-04-18T16:23:26.614Z,7.53
2023-04-18T16:26:29.190Z,7.30
2023-04-18T16:29:31.221Z,6.77
2023-04-18T16:32:33.365Z,8.57
2023-04-18T16:35:35.809Z,8.07
2023-04-18T16:38:37.982Z,8.07
2023-04-18T16:41:39.948Z,8.63
2023-04-18T16:44:42.085Z,8.40
2023-04-18T16:47:44.078Z,8.43
2023-04-18T16:50:46.196Z,8.23
2023-04-18T16:53:48.287Z,9.33
2023-04-18T16:56:50.404Z,8.83
2023-04-18T16:59:52.529Z,10.33
2023-04-18T17:02:56.315Z,10.17
2023-04-18T17:05:58.662Z,10.63
2023-04-18T17:09:01.004Z,10.90
2023-04-18T17:12:03.580Z,11.00
2023-04-18T17:15:06.074Z,11.23
2023-04-18T17:18:08.471Z,10.50
2023-04-18T17:21:12.751Z,10.17
2023-04-18T17:24:14.954Z,10.83
2023-04-18T17:27:17.391Z,9.97
2023-04-18T17:30:19.966Z,10.20
2023-04-18T17:33:22.317Z,9.17
2023-04-18T17:36:25.375Z,9.53
2023-04-18T17:39:28.043Z,9.17
2023-04-18T17:42:31.283Z,9.00
2023-04-18T17:45:33.524Z,8.93
2023-04-18T17:48:35.840Z,8.10
2023-04-18T17:51:38.360Z,8.43
2023-04-18T17:54:41.412Z,8.37
2023-04-18T17:57:43.814Z,8.70
2023-04-18T18:00:46.998Z,8.87
2023-04-18T18:03:50.263Z,8.87
2023-04-18T18:06:58.470Z,9.43
2023-04-18T18:10:10.250Z,10.20
2023-04-18T18:13:13.191Z,10.20
2023-04-18T18:16:16.697Z,9.70
2023-04-18T18:19:21.607Z,9.80
2023-04-18T18:22:26.530Z,10.57
2023-04-18T18:25:29.365Z,12.00
2023-04-18T18:28:32.883Z,11.97
2023-04-18T18:31:39.508Z,12.77
2023-04-18T18:34:43.125Z,12.63
2023-04-18T18:37:49.083Z,10.97
2023-04-18T18:40:52.337Z,11.40
2023-04-18T18:43:55.128Z,12.80
2023-04-18T18:46:59.437Z,12.00
2023-04-18T18:50:05.342Z,11.30
2023-04-18T18:53:08.742Z,11.80
2023-04-18T18:56:11.760Z,11.37
2023-04-18T18:59:16.416Z,11.90
2023-04-18T19:02:19.723Z,11.60
2023-04-18T19:05:23.400Z,12.00
2023-04-18T19:08:26.242Z,12.40
2023-04-18T19:11:31.058Z,13.10
2023-04-18T19:14:35.075Z,12.37
2023-04-18T19:17:38.330Z,13.40
2023-04-18T19:20:42.532Z,12.90
2023-04-18T19:23:47.362Z,12.47
2023-04-18T19:26:50.240Z,13.00
2023-04-18T19:29:53.365Z,12.87
2023-04-18T19:32:55.986Z,12.77
2023-04-18T19:35:59.413Z,12.57
2023-04-18T19:39:02.442Z,12.23
2023-04-18T19:42:05.456Z,12.40
2023-04-18T19:45:08.095Z,12.20
2023-04-18T19:48:11.233Z,12.00
2023-04-18T19:51:17.093Z,11.50
2023-04-18T19:54:22.012Z,11.70
2023-04-18T19:57:25.851Z,11.40
2023-04-18T20:00:30.249Z,11.30
2023-04-18T20:03:34.882Z,12.40
2023-04-18T20:06:37.792Z,11.83
2023-04-18T20:09:42.648Z,11.53
2023-04-18T20:12:45.551Z,12.37
2023-04-18T20:15:48.651Z,12.33
2023-04-18T20:18:54.800Z,11.77
2023-04-18T20:21:57.571Z,12.43
2023-04-18T20:25:02.290Z,11.80
2023-04-18T20:28:05.032Z,12.33
2023-04-18T20:31:08.098Z,11.03
2023-04-18T20:34:10.881Z,11.57
2023-04-18T20:37:16.591Z,11.20
2023-04-18T20:40:19.076Z,11.60
2023-04-18T20:43:29.138Z,9.67
2023-04-18T20:46:33.271Z,10.03
2023-04-18T20:49:36.195Z,11.43
2023-04-18T20:52:38.828Z,12.90
2023-04-18T20:55:41.132Z,11.83
2023-04-18T20:58:43.728Z,10.50
2023-04-18T21:01:48.715Z,11.07
2023-04-18T21:04:51.365Z,10.87
2023-04-18T21:07:53.502Z,11.27
2023-04-18T21:10:55.744Z,11.60
2023-04-18T21:13:57.809Z,11.13
2023-04-18T21:17:00.666Z,10.30
2023-04-18T21:20:03.691Z,10.97
2023-04-18T21:23:06.297Z,12.20
2023-04-18T21:26:13.765Z,11.20
2023-04-18T21:29:16.031Z,11.23
2023-04-18T21:32:18.120Z,11.50
2023-04-18T21:35:21.913Z,11.07
2023-04-18T21:38:26.105Z,11.47
2023-04-18T21:41:28.504Z,10.93
2023-04-18T21:44:30.795Z,10.97
2023-04-18T21:47:33.254Z,11.07
2023-04-18T21:50:37.754Z,11.93
2023-04-18T21:53:41.183Z,12.03
2023-04-18T21:56:43.809Z,11.97
2023-04-18T21:59:46.056Z,11.87
2023-04-18T22:02:48.429Z,11.67
2023-04-18T22:05:52.824Z,11.57
2023-04-18T22:08:54.939Z,11.63
2023-04-18T22:11:57.245Z,12.60
2023-04-18T22:14:59.527Z,11.97
2023-04-18T22:18:02.012Z,12.10
2023-04-18T22:21:04.434Z,12.37
2023-04-18T22:24:07.390Z,12.10
2023-04-18T22:27:09.648Z,12.03
2023-04-18T22:30:12.618Z,11.57
2023-04-18T22:33:14.817Z,11.53
2023-04-18T22:36:16.958Z,12.07
2023-04-18T22:39:19.183Z,12.83
2023-04-18T22:42:21.362Z,12.40
2023-04-18T22:45:23.689Z,12.13
2023-04-18T22:48:25.967Z,12.47
2023-04-18T22:51:29.034Z,13.27
2023-04-18T22:54:31.301Z,13.20
2023-04-18T22:57:33.467Z,13.37
2023-04-18T23:00:36.025Z,11.13
2023-04-18T23:03:38.463Z,12.70
2023-04-18T23:06:40.943Z,11.83
2023-04-18T23:09:43.233Z,11.43
2023-04-18T23:12:45.556Z,11.40
2023-04-18T23:15:47.817Z,11.57
2023-04-18T23:18:50.157Z,10.87
2023-04-18T23:21:52.418Z,11.90
2023-04-18T23:24:55.483Z,10.40
2023-04-18T23:27:57.626Z,11.43
2023-04-18T23:30:59.719Z,12.37
2023-04-18T23:34:01.876Z,12.20
2023-04-18T23:37:04.056Z,12.03
2023-04-18T23:40:07.072Z,11.97
2023-04-18T23:43:09.142Z,11.10
2023-04-18T23:46:12.321Z,11.53
2023-04-18T23:49:14.982Z,11.33
2023-04-18T23:52:17.317Z,10.97
2023-04-18T23:55:19.450Z,12.70
2023-04-18T23:58:21.541Z,12.57
